Aetna, Tennessee
Current Conditions -  °F | °C
As of 6:55 AM on Thursday 27 Nov 2014 (Local Time) from KMRC Reporting Station
Overcast Overcast  
Wind Chill: 32°   Ceiling: 4100
Heat Index: 37°   Visibility: 10mi
Dew Point: 36°   Wind: 7mph
Humidity: 93%   Direction: NA
Pressure: 30.29"   Gusts: NA
Location:  35.7514°N, 87.5392°W
Report Text: KMRC 271255Z AUTO VRB06KT 10SM SCT035 OVC041 03/02 A3029 RMK
Loading
Personal Weather Stations






























Interactive Weather Map New forecast layout! Learn more

10-Day Weather Forecast

Advertisements
Track Severe Weather on mobile